Time;durP1;ratioP1;P1;durP2;ratioP2;P2;SDS_P1;SDS_P2;PMS_P1;PMS_P2;Temp;Humidity;BMP_temperature;BMP_pressure;BME280_temperature;BME280_humidity;BME280_pressure;Samples;Min_cycle;Max_cycle;Signal;HPM_P1;HPM_P2
2021/08/20 00:01:36;;;;;;;;;4.75;3.25;;;;;;;;5058053;27;45464;-85
2021/08/20 00:04:03;;;;;;;;;4.25;2.75;;;;;;;;5056235;27;46027;-88
2021/08/20 00:06:29;;;;;;;;;3.00;2.00;;;;;;;;5057425;27;46105;-83
2021/08/20 00:08:54;;;;;;;;;3.00;3.00;;;;;;;;5061542;27;45580;-85
2021/08/20 00:11:19;;;;;;;;;3.00;3.00;;;;;;;;5059866;27;45584;-83
2021/08/20 00:13:44;;;;;;;;;4.75;4.00;;;;;;;;5062459;27;45588;-85
2021/08/20 00:16:10;;;;;;;;;4.00;3.00;;;;;;;;5053810;27;47262;-85
2021/08/20 00:18:35;;;;;;;;;3.25;2.75;;;;;;;;5064098;27;45664;-85
2021/08/20 00:21:00;;;;;;;;;2.50;1.25;;;;;;;;5060609;27;45547;-84
2021/08/20 00:23:26;;;;;;;;;4.75;3.00;;;;;;;;5060028;27;45509;-84
2021/08/20 00:25:51;;;;;;;;;2.00;2.00;;;;;;;;5062931;28;45702;-85
2021/08/20 00:28:18;;;;;;;;;2.25;2.25;;;;;;;;5049785;27;45504;-85
2021/08/20 00:30:45;;;;;;;;;3.25;2.00;;;;;;;;5049764;27;45492;-84
2021/08/20 00:33:10;;;;;;;;;3.25;2.00;;;;;;;;5061794;27;45660;-85
2021/08/20 00:35:35;;;;;;;;;2.00;2.00;;;;;;;;5048832;27;46184;-85
2021/08/20 00:38:01;;;;;;;;;2.00;2.00;;;;;;;;5062982;27;45584;-85
2021/08/20 00:40:26;;;;;;;;;3.00;3.00;;;;;;;;5054320;27;45484;-85
2021/08/20 00:42:52;;;;;;;;;3.50;3.25;;;;;;;;5051910;27;62208;-84
2021/08/20 00:45:17;;;;;;;;;6.00;4.00;;;;;;;;5064651;28;48072;-85
2021/08/20 00:47:42;;;;;;;;;5.00;2.75;;;;;;;;5047628;27;45459;-85
2021/08/20 00:50:08;;;;;;;;;3.00;3.00;;;;;;;;5054049;27;45575;-84
2021/08/20 00:52:34;;;;;;;;;4.00;3.00;;;;;;;;5057232;28;45566;-84
2021/08/20 00:55:00;;;;;;;;;3.50;3.00;;;;;;;;5057409;27;47026;-86
2021/08/20 00:57:25;;;;;;;;;2.50;2.50;;;;;;;;5061358;27;45559;-85
2021/08/20 00:59:50;;;;;;;;;4.50;3.50;;;;;;;;5047271;27;45423;-85
2021/08/20 01:02:16;;;;;;;;;3.50;3.50;;;;;;;;5064959;28;45672;-84
2021/08/20 01:04:41;;;;;;;;;6.50;3.00;;;;;;;;5048628;27;47167;-82
2021/08/20 01:07:07;;;;;;;;;3.00;3.00;;;;;;;;5052178;27;45536;-82
2021/08/20 01:09:32;;;;;;;;;2.50;2.50;;;;;;;;5064030;28;45512;-82
2021/08/20 01:11:58;;;;;;;;;6.00;4.50;;;;;;;;5046878;28;45602;-82
2021/08/20 01:14:30;;;;;;;;;5.50;3.75;;;;;;;;5050895;27;45581;-82
2021/08/20 01:16:55;;;;;;;;;3.25;3.25;;;;;;;;5053872;27;45574;-82
2021/08/20 01:19:20;;;;;;;;;4.50;2.50;;;;;;;;5046266;27;45565;-82
2021/08/20 01:21:46;;;;;;;;;4.75;2.00;;;;;;;;5053883;28;45551;-82
2021/08/20 01:24:12;;;;;;;;;3.75;3.00;;;;;;;;5058217;27;46487;-81
2021/08/20 01:26:37;;;;;;;;;3.00;3.00;;;;;;;;5056546;27;45492;-82
2021/08/20 01:29:02;;;;;;;;;2.25;2.25;;;;;;;;5066013;28;45450;-82
2021/08/20 01:31:27;;;;;;;;;5.25;3.75;;;;;;;;5055107;27;45480;-82
2021/08/20 01:33:54;;;;;;;;;4.75;3.00;;;;;;;;5052107;27;48495;-82
2021/08/20 01:36:19;;;;;;;;;5.00;4.00;;;;;;;;5067805;27;45813;-82
2021/08/20 01:38:46;;;;;;;;;3.50;2.75;;;;;;;;5051765;27;45596;-81
2021/08/20 01:41:11;;;;;;;;;3.50;2.00;;;;;;;;5052777;27;45560;-82
2021/08/20 01:43:37;;;;;;;;;3.00;2.50;;;;;;;;5056063;27;46440;-82
2021/08/20 01:46:02;;;;;;;;;3.25;3.00;;;;;;;;5051222;27;46255;-81
2021/08/20 01:48:27;;;;;;;;;3.75;3.50;;;;;;;;5056567;27;45527;-81
2021/08/20 01:50:52;;;;;;;;;3.00;3.00;;;;;;;;5064196;27;50964;-82
2021/08/20 01:59:23;;;;;;;;;4.00;3.00;;;;;;;;5063931;22;45573;-82
2021/08/20 02:01:48;;;;;;;;;3.00;3.00;;;;;;;;5047489;28;46364;-82
2021/08/20 02:04:14;;;;;;;;;2.00;2.00;;;;;;;;5042925;28;45815;-85
2021/08/20 02:06:40;;;;;;;;;3.50;3.00;;;;;;;;5031347;28;45608;-84
2021/08/20 02:09:05;;;;;;;;;4.00;3.00;;;;;;;;5044212;28;45950;-86
2021/08/20 02:11:30;;;;;;;;;3.00;2.25;;;;;;;;5027337;28;47766;-85
2021/08/20 02:13:56;;;;;;;;;3.50;3.50;;;;;;;;5018656;28;48549;-84
2021/08/20 02:16:21;;;;;;;;;3.00;3.00;;;;;;;;5043370;28;45644;-85
2021/08/20 02:18:46;;;;;;;;;3.00;3.00;;;;;;;;5048674;28;45502;-85
2021/08/20 02:21:12;;;;;;;;;3.00;3.00;;;;;;;;5044847;28;45473;-84
2021/08/20 02:23:38;;;;;;;;;4.75;3.00;;;;;;;;5026289;28;48457;-86
2021/08/20 02:26:03;;;;;;;;;6.50;4.00;;;;;;;;5030087;28;45302;-86
2021/08/20 02:28:29;;;;;;;;;2.00;2.00;;;;;;;;5044945;28;45553;-85
2021/08/20 02:30:54;;;;;;;;;4.00;2.50;;;;;;;;5027787;28;45371;-87
2021/08/20 02:33:19;;;;;;;;;6.00;4.50;;;;;;;;5027778;28;47154;-84
2021/08/20 02:35:44;;;;;;;;;3.00;3.00;;;;;;;;5043885;28;46561;-84
2021/08/20 02:38:10;;;;;;;;;4.75;3.50;;;;;;;;5043756;28;46569;-84
2021/08/20 02:40:35;;;;;;;;;2.00;2.00;;;;;;;;5044480;28;51261;-85
2021/08/20 02:43:00;;;;;;;;;3.50;3.25;;;;;;;;5044096;28;45664;-84
2021/08/20 02:45:26;;;;;;;;;5.00;3.00;;;;;;;;5028955;28;45551;-84
2021/08/20 02:47:52;;;;;;;;;4.00;4.00;;;;;;;;5024871;28;45587;-86
2021/08/20 02:50:17;;;;;;;;;6.00;3.00;;;;;;;;5048036;28;46093;-84
2021/08/20 02:52:42;;;;;;;;;3.25;3.25;;;;;;;;5025354;28;45898;-85
2021/08/20 02:55:08;;;;;;;;;4.00;4.00;;;;;;;;5024738;28;45519;-84
2021/08/20 02:57:34;;;;;;;;;4.00;3.00;;;;;;;;5047726;28;45792;-86
2021/08/20 02:59:59;;;;;;;;;3.00;3.00;;;;;;;;5044150;28;45637;-84
2021/08/20 03:02:24;;;;;;;;;4.00;4.00;;;;;;;;5045568;28;45581;-85
2021/08/20 03:04:50;;;;;;;;;5.00;3.50;;;;;;;;5046189;28;45615;-84
2021/08/20 03:07:15;;;;;;;;;3.00;3.00;;;;;;;;5043109;28;46341;-86
2021/08/20 03:09:40;;;;;;;;;5.00;3.00;;;;;;;;5013926;28;45592;-85
2021/08/20 03:12:06;;;;;;;;;2.50;2.50;;;;;;;;5024462;28;46749;-84
2021/08/20 03:14:31;;;;;;;;;3.25;3.00;;;;;;;;5044298;28;47722;-84
2021/08/20 03:16:56;;;;;;;;;2.25;2.25;;;;;;;;5030064;28;46195;-85
2021/08/20 03:19:22;;;;;;;;;4.50;3.25;;;;;;;;5041675;28;46109;-84
2021/08/20 03:21:48;;;;;;;;;3.75;3.75;;;;;;;;5030031;28;47713;-85
2021/08/20 03:24:13;;;;;;;;;3.50;3.00;;;;;;;;5026745;28;45728;-84
2021/08/20 03:26:38;;;;;;;;;4.50;4.50;;;;;;;;5043365;28;48328;-84
2021/08/20 03:29:04;;;;;;;;;3.00;3.00;;;;;;;;5030399;28;45620;-85
2021/08/20 03:31:29;;;;;;;;;5.00;3.75;;;;;;;;5043130;28;47986;-85
2021/08/20 03:33:54;;;;;;;;;3.50;3.50;;;;;;;;5026039;28;45951;-87
2021/08/20 03:36:21;;;;;;;;;3.25;3.25;;;;;;;;5028586;28;45394;-84
2021/08/20 03:38:46;;;;;;;;;5.25;3.75;;;;;;;;5043471;28;45426;-85
2021/08/20 03:41:12;;;;;;;;;3.00;3.00;;;;;;;;5047575;28;45771;-85
2021/08/20 03:43:37;;;;;;;;;5.00;3.00;;;;;;;;5042583;28;45496;-85
2021/08/20 03:46:04;;;;;;;;;4.00;4.00;;;;;;;;5025310;28;45602;-85
2021/08/20 03:48:29;;;;;;;;;4.25;3.00;;;;;;;;5047224;28;45709;-86
2021/08/20 03:50:55;;;;;;;;;4.50;4.00;;;;;;;;5023533;28;47363;-84
2021/08/20 03:53:20;;;;;;;;;4.00;4.00;;;;;;;;5027817;28;45570;-86
2021/08/20 03:55:45;;;;;;;;;5.00;4.00;;;;;;;;5043908;28;45511;-85
2021/08/20 03:58:10;;;;;;;;;5.75;4.00;;;;;;;;5019361;28;45673;-85
2021/08/20 04:00:37;;;;;;;;;4.25;4.25;;;;;;;;5029890;28;47335;-87
2021/08/20 04:03:02;;;;;;;;;4.00;3.75;;;;;;;;5024592;28;45557;-85
2021/08/20 04:05:27;;;;;;;;;3.00;3.00;;;;;;;;5042613;28;47484;-82
2021/08/20 04:07:52;;;;;;;;;3.25;3.25;;;;;;;;5047644;28;46146;-82
2021/08/20 04:10:18;;;;;;;;;5.00;3.75;;;;;;;;5041904;28;46374;-82
2021/08/20 04:12:43;;;;;;;;;8.00;3.00;;;;;;;;5044173;28;45509;-82
2021/08/20 04:15:08;;;;;;;;;5.25;4.00;;;;;;;;5042800;28;45620;-82
2021/08/20 04:17:34;;;;;;;;;4.00;4.00;;;;;;;;5042829;28;45656;-82
2021/08/20 04:19:59;;;;;;;;;4.00;4.00;;;;;;;;5027621;28;47723;-83
2021/08/20 04:22:24;;;;;;;;;5.00;4.00;;;;;;;;5024304;28;47859;-81
2021/08/20 04:24:50;;;;;;;;;3.50;3.50;;;;;;;;5028028;28;45493;-82
2021/08/20 04:27:17;;;;;;;;;4.25;3.00;;;;;;;;5043176;28;45773;-82
2021/08/20 04:29:42;;;;;;;;;4.00;3.75;;;;;;;;5041472;28;46425;-82
2021/08/20 04:32:08;;;;;;;;;5.75;4.00;;;;;;;;5046353;28;45480;-81
2021/08/20 04:34:33;;;;;;;;;3.25;3.25;;;;;;;;5024092;28;46093;-82
2021/08/20 04:36:58;;;;;;;;;3.25;3.25;;;;;;;;5042641;28;45876;-81
2021/08/20 04:39:23;;;;;;;;;5.75;4.75;;;;;;;;5029431;28;47169;-82
2021/08/20 04:41:49;;;;;;;;;7.50;3.75;;;;;;;;5042825;28;45477;-82
2021/08/20 04:44:14;;;;;;;;;3.00;3.00;;;;;;;;5047040;28;45551;-82
2021/08/20 04:46:40;;;;;;;;;4.00;4.00;;;;;;;;5024614;28;45548;-82
2021/08/20 04:49:06;;;;;;;;;4.00;3.00;;;;;;;;5024104;28;47417;-83
2021/08/20 04:51:31;;;;;;;;;4.75;4.00;;;;;;;;5028858;28;45691;-82
2021/08/20 04:53:57;;;;;;;;;11.75;6.00;;;;;;;;5011232;28;45640;-82
2021/08/20 04:56:22;;;;;;;;;5.00;5.00;;;;;;;;5043833;28;45827;-82
2021/08/20 04:58:47;;;;;;;;;6.25;4.75;;;;;;;;5042086;28;45557;-82
2021/08/20 05:01:13;;;;;;;;;3.25;3.00;;;;;;;;5040619;28;45655;-82
2021/08/20 05:03:38;;;;;;;;;7.00;4.50;;;;;;;;5046550;28;48481;-81
2021/08/20 05:06:04;;;;;;;;;4.50;4.00;;;;;;;;5041910;28;45597;-82
2021/08/20 05:08:30;;;;;;;;;5.00;4.00;;;;;;;;5042731;28;45718;-81
2021/08/20 05:10:55;;;;;;;;;5.00;4.25;;;;;;;;5028242;28;45530;-82
2021/08/20 05:13:20;;;;;;;;;5.25;3.75;;;;;;;;5041414;28;45750;-82
2021/08/20 05:15:45;;;;;;;;;6.50;4.25;;;;;;;;5027505;28;46046;-82
2021/08/20 05:18:11;;;;;;;;;7.25;4.00;;;;;;;;5008716;28;48304;-82
2021/08/20 05:20:36;;;;;;;;;6.00;3.75;;;;;;;;5023540;28;50722;-81
2021/08/20 05:23:01;;;;;;;;;3.00;3.00;;;;;;;;5029203;28;45513;-82
2021/08/20 05:25:31;;;;;;;;;5.00;5.00;;;;;;;;5041035;28;46122;-82
2021/08/20 05:27:56;;;;;;;;;5.00;4.00;;;;;;;;5014350;28;46681;-81
2021/08/20 05:30:21;;;;;;;;;6.75;4.00;;;;;;;;5044406;28;45555;-81
2021/08/20 05:32:46;;;;;;;;;6.25;4.00;;;;;;;;5041548;28;48011;-82
2021/08/20 05:35:13;;;;;;;;;3.75;3.50;;;;;;;;5012652;28;45638;-82
2021/08/20 05:37:38;;;;;;;;;4.00;3.25;;;;;;;;5040999;28;45434;-82
2021/08/20 05:40:04;;;;;;;;;6.75;4.00;;;;;;;;5024974;28;45938;-82
2021/08/20 05:42:30;;;;;;;;;4.00;3.25;;;;;;;;5043353;28;45442;-82
2021/08/20 05:44:55;;;;;;;;;3.00;3.00;;;;;;;;5040529;28;45548;-81
2021/08/20 05:47:21;;;;;;;;;4.00;3.00;;;;;;;;5046525;28;45553;-82
2021/08/20 05:49:46;;;;;;;;;4.50;3.00;;;;;;;;5024632;28;45566;-81
2021/08/20 05:52:12;;;;;;;;;6.25;5.00;;;;;;;;5022271;28;45540;-82
2021/08/20 05:54:37;;;;;;;;;4.50;3.00;;;;;;;;5027906;28;45706;-82
2021/08/20 05:57:02;;;;;;;;;3.75;3.75;;;;;;;;5024250;28;56144;-82
2021/08/20 05:59:28;;;;;;;;;6.75;5.00;;;;;;;;5056642;27;45626;-82
2021/08/20 06:01:53;;;;;;;;;3.75;3.75;;;;;;;;5065562;27;45513;-82
2021/08/20 06:04:18;;;;;;;;;4.00;2.75;;;;;;;;5059831;27;45585;-85
2021/08/20 06:06:44;;;;;;;;;5.00;5.00;;;;;;;;5065200;27;46233;-85
2021/08/20 06:09:09;;;;;;;;;4.00;4.00;;;;;;;;5059446;28;45634;-85
2021/08/20 06:11:34;;;;;;;;;3.25;3.25;;;;;;;;5064885;27;45644;-85
2021/08/20 06:14:00;;;;;;;;;5.75;4.00;;;;;;;;5068337;27;45484;-86
2021/08/20 06:16:25;;;;;;;;;6.00;5.25;;;;;;;;5062405;27;48015;-84
2021/08/20 06:18:51;;;;;;;;;3.75;3.75;;;;;;;;5067736;27;45614;-84
2021/08/20 06:21:16;;;;;;;;;4.00;4.00;;;;;;;;5065852;27;46404;-85
2021/08/20 06:23:41;;;;;;;;;3.00;3.00;;;;;;;;5062605;27;45867;-85
2021/08/20 06:26:06;;;;;;;;;5.00;4.00;;;;;;;;5067743;27;46178;-83
2021/08/20 06:28:32;;;;;;;;;9.00;4.00;;;;;;;;5050094;28;45898;-85
2021/08/20 06:31:02;;;;;;;;;5.25;5.25;;;;;;;;5065819;27;45526;-87
2021/08/20 06:33:28;;;;;;;;;3.00;3.00;;;;;;;;5066854;27;45512;-84
2021/08/20 06:35:53;;;;;;;;;7.00;4.00;;;;;;;;5063110;27;45573;-85
2021/08/20 06:38:18;;;;;;;;;5.50;5.50;;;;;;;;5068701;28;45609;-85
2021/08/20 06:40:44;;;;;;;;;6.00;6.00;;;;;;;;5063537;27;45509;-85
2021/08/20 06:43:10;;;;;;;;;5.00;4.00;;;;;;;;5063794;27;45562;-85
2021/08/20 06:45:35;;;;;;;;;7.00;4.75;;;;;;;;5068474;28;45532;-86
2021/08/20 06:48:00;;;;;;;;;6.25;4.00;;;;;;;;5063634;27;45519;-85
2021/08/20 06:50:25;;;;;;;;;4.00;4.00;;;;;;;;5053684;28;45532;-84
2021/08/20 06:52:51;;;;;;;;;6.75;5.00;;;;;;;;5067164;27;45459;-85
2021/08/20 06:55:16;;;;;;;;;6.00;3.33;;;;;;;;5062763;27;45583;-85
2021/08/20 06:57:41;;;;;;;;;5.00;5.00;;;;;;;;5068111;27;45526;-84
2021/08/20 07:00:07;;;;;;;;;6.00;4.00;;;;;;;;5045679;27;45469;-84
2021/08/20 07:02:39;;;;;;;;;5.75;5.00;;;;;;;;5045043;28;45423;-85
2021/08/20 07:05:05;;;;;;;;;8.50;6.00;;;;;;;;5028529;28;47795;-84
2021/08/20 07:07:31;;;;;;;;;7.75;6.00;;;;;;;;5016777;28;45497;-85
2021/08/20 07:09:56;;;;;;;;;6.25;4.75;;;;;;;;5016416;28;45568;-86
2021/08/20 07:12:21;;;;;;;;;6.67;6.33;;;;;;;;5016019;28;45575;-84
2021/08/20 07:14:46;;;;;;;;;6.00;6.00;;;;;;;;5043449;28;56213;-84
2021/08/20 07:17:11;;;;;;;;;5.25;5.00;;;;;;;;5031179;28;45640;-85
2021/08/20 07:19:37;;;;;;;;;9.25;5.50;;;;;;;;5012743;28;45641;-86
2021/08/20 07:22:02;;;;;;;;;5.75;5.75;;;;;;;;5043029;28;45604;-85
2021/08/20 07:24:27;;;;;;;;;8.00;5.25;;;;;;;;5047841;28;46211;-84
2021/08/20 07:26:53;;;;;;;;;9.00;6.00;;;;;;;;5041202;28;45525;-85
2021/08/20 07:29:18;;;;;;;;;9.75;6.50;;;;;;;;5048288;28;45552;-84
2021/08/20 07:31:43;;;;;;;;;8.00;6.00;;;;;;;;5025907;28;46274;-84
2021/08/20 07:34:08;;;;;;;;;6.00;5.50;;;;;;;;5043389;28;45685;-84
2021/08/20 07:36:33;;;;;;;;;6.25;6.00;;;;;;;;5047638;28;45473;-84
2021/08/20 07:38:59;;;;;;;;;7.50;5.00;;;;;;;;5041820;28;45763;-86
2021/08/20 07:41:24;;;;;;;;;4.00;3.75;;;;;;;;5028218;28;45537;-83
2021/08/20 07:43:49;;;;;;;;;6.00;6.00;;;;;;;;5045364;28;46653;-85
2021/08/20 07:46:14;;;;;;;;;7.25;5.00;;;;;;;;5024039;28;45650;-84
2021/08/20 07:48:40;;;;;;;;;5.75;4.50;;;;;;;;5029876;28;45502;-85
2021/08/20 07:51:05;;;;;;;;;5.75;5.75;;;;;;;;5024085;28;48691;-84
2021/08/20 07:53:30;;;;;;;;;4.50;4.50;;;;;;;;5042894;28;46437;-84
2021/08/20 07:55:57;;;;;;;;;6.75;4.75;;;;;;;;5028848;28;45520;-84
2021/08/20 07:58:23;;;;;;;;;7.00;5.00;;;;;;;;5042765;28;48381;-85
2021/08/20 08:00:48;;;;;;;;;7.50;7.00;;;;;;;;5030174;28;45611;-85
2021/08/20 08:03:13;;;;;;;;;8.50;8.50;;;;;;;;5024511;28;46904;-84
2021/08/20 08:05:39;;;;;;;;;6.75;5.50;;;;;;;;5042626;28;45557;-84
2021/08/20 08:08:04;;;;;;;;;7.25;6.00;;;;;;;;5046465;28;45504;-85
2021/08/20 08:10:29;;;;;;;;;9.00;7.00;;;;;;;;5023864;28;45616;-84
2021/08/20 08:12:55;;;;;;;;;7.25;6.00;;;;;;;;5026115;28;47077;-86
2021/08/20 08:15:47;;;;;;;;;7.50;7.00;;;;;;;;4984388;28;45714;-84
2021/08/20 08:18:12;;;;;;;;;9.25;7.50;;;;;;;;4965704;28;47870;-84
2021/08/20 08:20:38;;;;;;;;;11.00;10.00;;;;;;;;4963148;28;45631;-87
2021/08/20 08:23:03;;;;;;;;;8.50;8.25;;;;;;;;4952636;28;47985;-84
2021/08/20 08:25:29;;;;;;;;;11.75;8.00;;;;;;;;4963997;28;45577;-84
2021/08/20 08:27:56;;;;;;;;;9.25;7.25;;;;;;;;4979726;28;45637;-83
2021/08/20 08:30:22;;;;;;;;;12.25;8.00;;;;;;;;4964137;28;45855;-86
2021/08/20 08:32:47;;;;;;;;;7.00;6.00;;;;;;;;4978669;28;46176;-83
2021/08/20 08:35:12;;;;;;;;;8.50;7.75;;;;;;;;4968412;28;45668;-85
2021/08/20 08:37:38;;;;;;;;;13.25;7.00;;;;;;;;4980728;28;46276;-84
2021/08/20 08:40:03;;;;;;;;;8.00;8.00;;;;;;;;4980686;28;45658;-85
2021/08/20 08:42:28;;;;;;;;;9.75;7.75;;;;;;;;4968983;28;46497;-84
2021/08/20 08:44:55;;;;;;;;;8.00;7.50;;;;;;;;4979497;28;45466;-85
2021/08/20 08:47:20;;;;;;;;;8.50;5.75;;;;;;;;4980656;28;45507;-85
2021/08/20 08:49:48;;;;;;;;;10.25;10.25;;;;;;;;4962212;28;47962;-85
2021/08/20 08:52:14;;;;;;;;;7.00;7.00;;;;;;;;5009071;28;47129;-86
2021/08/20 08:54:39;;;;;;;;;10.75;9.75;;;;;;;;5019402;28;45838;-86
2021/08/20 08:57:04;;;;;;;;;9.75;7.00;;;;;;;;5041114;28;45631;-85
2021/08/20 08:59:30;;;;;;;;;9.75;7.50;;;;;;;;5043272;28;45810;-83
2021/08/20 09:01:55;;;;;;;;;16.75;8.50;;;;;;;;5027558;28;47376;-84
2021/08/20 09:04:23;;;;;;;;;9.00;8.50;;;;;;;;5040151;28;45568;-84
2021/08/20 09:06:50;;;;;;;;;8.75;6.00;;;;;;;;5046671;28;45427;-85
2021/08/20 09:09:16;;;;;;;;;8.50;8.00;;;;;;;;5025444;28;45649;-85
2021/08/20 09:11:43;;;;;;;;;9.00;8.00;;;;;;;;5040755;28;46445;-85
2021/08/20 09:14:09;;;;;;;;;7.50;6.00;;;;;;;;5026725;28;51514;-85
2021/08/20 09:16:35;;;;;;;;;12.25;8.00;;;;;;;;5024446;28;45593;-84
2021/08/20 09:19:08;;;;;;;;;9.75;9.50;;;;;;;;5041505;28;45535;-85
2021/08/20 09:21:33;;;;;;;;;9.00;7.00;;;;;;;;5029238;28;47909;-86
2021/08/20 09:23:59;;;;;;;;;10.50;10.00;;;;;;;;5040909;28;45585;-85
2021/08/20 09:26:24;;;;;;;;;6.50;6.50;;;;;;;;5044286;28;45645;-84
2021/08/20 09:28:49;;;;;;;;;7.00;6.50;;;;;;;;5042390;28;45439;-84
2021/08/20 09:31:14;;;;;;;;;10.00;9.25;;;;;;;;5023235;28;47248;-84
2021/08/20 09:33:43;;;;;;;;;11.33;9.00;;;;;;;;5011664;28;45565;-88
2021/08/20 09:36:09;;;;;;;;;10.25;8.25;;;;;;;;5024604;28;45433;-85
2021/08/20 09:38:36;;;;;;;;;7.50;7.50;;;;;;;;5042708;28;50857;-84
2021/08/20 09:41:05;;;;;;;;;7.75;7.00;;;;;;;;5044986;28;46473;-85
2021/08/20 09:43:34;;;;;;;;;7.75;7.50;;;;;;;;5040902;28;47392;-85
2021/08/20 09:46:01;;;;;;;;;14.00;8.25;;;;;;;;5045737;28;45651;-85
2021/08/20 09:48:46;;;;;;;;;9.00;6.75;;;;;;;;5027477;28;45878;-84
2021/08/20 09:51:31;;;;;;;;;10.00;8.00;;;;;;;;5045462;28;45539;-85
2021/08/20 09:53:57;;;;;;;;;6.50;6.25;;;;;;;;5041309;28;46889;-85
2021/08/20 09:56:23;;;;;;;;;5.75;5.75;;;;;;;;5046842;28;45667;-84
2021/08/20 09:58:48;;;;;;;;;8.25;6.50;;;;;;;;5043301;28;45849;-86
2021/08/20 10:01:14;;;;;;;;;8.50;6.00;;;;;;;;5025840;28;47845;-85
2021/08/20 10:03:39;;;;;;;;;4.75;4.75;;;;;;;;5029253;28;46648;-86
2021/08/20 10:06:04;;;;;;;;;7.50;5.75;;;;;;;;5017662;28;45742;-85
2021/08/20 10:08:32;;;;;;;;;6.25;5.00;;;;;;;;5047054;28;45685;-86
2021/08/20 10:10:57;;;;;;;;;5.75;5.50;;;;;;;;5029114;28;46108;-85
2021/08/20 10:13:25;;;;;;;;;4.75;4.75;;;;;;;;5011414;28;45519;-85
2021/08/20 10:15:50;;;;;;;;;6.00;6.00;;;;;;;;5047801;28;45564;-85
2021/08/20 10:18:16;;;;;;;;;5.25;4.00;;;;;;;;5043905;28;47044;-85
2021/08/20 10:20:41;;;;;;;;;8.00;6.75;;;;;;;;5015734;28;47901;-86
2021/08/20 10:23:09;;;;;;;;;7.00;4.75;;;;;;;;5049306;28;45611;-88
2021/08/20 10:25:35;;;;;;;;;8.00;4.75;;;;;;;;5044913;28;45658;-85
2021/08/20 10:28:00;;;;;;;;;7.25;6.00;;;;;;;;5045630;28;45534;-86
2021/08/20 10:30:27;;;;;;;;;1.50;1.00;;;;;;;;5048396;28;46677;-85
2021/08/20 10:33:03;;;;;;;;;6.00;3.75;;;;;;;;5027092;28;45972;-84
2021/08/20 10:35:51;;;;;;;;;6.50;5.00;;;;;;;;5045055;28;45652;-86
2021/08/20 10:38:27;;;;;;;;;5.50;5.00;;;;;;;;5017991;28;47319;-85
2021/08/20 10:41:08;;;;;;;;;5.00;4.00;;;;;;;;5027851;28;47615;-85
2021/08/20 10:43:49;;;;;;;;;10.00;4.00;;;;;;;;5043906;28;45553;-86
2021/08/20 10:46:33;;;;;;;;;6.00;5.00;;;;;;;;5042909;28;45553;-86
2021/08/20 10:49:10;;;;;;;;;4.50;4.50;;;;;;;;5011526;28;45875;-87
2021/08/20 10:51:47;;;;;;;;;4.25;3.50;;;;;;;;5047809;28;46569;-85
2021/08/20 10:54:13;;;;;;;;;4.00;3.25;;;;;;;;5043876;28;45629;-85
2021/08/20 10:56:38;;;;;;;;;5.00;3.50;;;;;;;;5025805;28;45567;-86
2021/08/20 10:59:03;;;;;;;;;3.50;1.50;;;;;;;;5046305;28;45730;-84
2021/08/20 11:01:29;;;;;;;;;3.50;1.75;;;;;;;;5063350;27;45484;-85
2021/08/20 11:03:54;;;;;;;;;1.00;1.00;;;;;;;;5065116;27;45768;-86
2021/08/20 11:06:38;;;;;;;;;2.25;1.75;;;;;;;;5063882;27;45925;-86
2021/08/20 11:09:22;;;;;;;;;2.00;2.00;;;;;;;;5064864;28;45552;-86
2021/08/20 11:11:50;;;;;;;;;4.50;2.00;;;;;;;;5062322;27;45674;-84
2021/08/20 11:14:22;;;;;;;;;4.00;3.00;;;;;;;;5066507;27;45449;-85
2021/08/20 11:16:47;;;;;;;;;2.75;2.75;;;;;;;;5057816;27;45460;-85
2021/08/20 11:19:32;;;;;;;;;2.00;1.00;;;;;;;;5063310;27;45600;-85
2021/08/20 11:22:11;;;;;;;;;2.75;2.75;;;;;;;;5067342;27;45548;-86
2021/08/20 11:24:36;;;;;;;;;3.00;2.25;;;;;;;;5052912;27;45587;-86
2021/08/20 11:27:18;;;;;;;;;3.00;2.00;;;;;;;;5058167;28;46039;-85
2021/08/20 11:29:43;;;;;;;;;3.00;2.25;;;;;;;;5062790;28;45545;-84
2021/08/20 11:32:08;;;;;;;;;1.50;1.50;;;;;;;;5068008;27;46454;-86
2021/08/20 11:34:34;;;;;;;;;2.00;2.00;;;;;;;;5062280;27;45830;-84
2021/08/20 11:37:00;;;;;;;;;1.25;1.25;;;;;;;;5065143;27;45590;-86
2021/08/20 11:39:25;;;;;;;;;5.00;2.00;;;;;;;;5065673;27;47967;-84
2021/08/20 11:41:55;;;;;;;;;2.50;2.50;;;;;;;;5061216;28;47374;-85
2021/08/20 11:44:25;;;;;;;;;2.25;2.25;;;;;;;;5066297;28;45792;-85
2021/08/20 11:46:50;;;;;;;;;2.00;1.00;;;;;;;;5063240;27;54045;-85
2021/08/20 11:49:28;;;;;;;;;1.00;1.00;;;;;;;;5058282;27;45726;-85
2021/08/20 11:52:02;;;;;;;;;2.75;1.25;;;;;;;;5067314;27;47908;-84
2021/08/20 11:54:32;;;;;;;;;2.75;1.50;;;;;;;;5068198;27;45471;-85
2021/08/20 11:56:58;;;;;;;;;0.50;0.50;;;;;;;;5062092;27;45669;-84
2021/08/20 11:59:23;;;;;;;;;2.00;0.00;;;;;;;;5054343;28;45948;-84
2021/08/20 12:01:53;;;;;;;;;1.00;1.00;;;;;;;;5025224;28;47690;-85
2021/08/20 12:04:21;;;;;;;;;2.00;1.25;;;;;;;;5042509;28;49567;-85
2021/08/20 12:06:46;;;;;;;;;1.00;1.00;;;;;;;;5029845;28;45550;-85
2021/08/20 12:09:12;;;;;;;;;1.50;1.50;;;;;;;;5043384;28;45650;-86
2021/08/20 12:11:39;;;;;;;;;1.75;1.00;;;;;;;;5042133;28;45695;-85
2021/08/20 12:14:05;;;;;;;;;1.75;1.75;;;;;;;;5044958;28;45585;-85
2021/08/20 12:16:36;;;;;;;;;1.25;1.25;;;;;;;;5042656;28;45518;-87
2021/08/20 12:19:11;;;;;;;;;3.25;2.00;;;;;;;;5026036;28;45596;-84
2021/08/20 12:21:36;;;;;;;;;1.50;1.50;;;;;;;;5046979;28;46220;-85
2021/08/20 12:24:02;;;;;;;;;1.50;1.00;;;;;;;;5023410;28;46598;-84
2021/08/20 12:26:28;;;;;;;;;4.75;2.75;;;;;;;;5027943;28;45445;-86
2021/08/20 12:28:54;;;;;;;;;1.75;1.75;;;;;;;;5044102;28;45692;-84
2021/08/20 12:31:23;;;;;;;;;1.25;1.25;;;;;;;;5016891;28;45874;-85
2021/08/20 12:33:58;;;;;;;;;3.00;2.00;;;;;;;;5028229;28;46036;-86
2021/08/20 12:36:23;;;;;;;;;1.00;1.00;;;;;;;;5015105;28;45450;-84
2021/08/20 12:39:05;;;;;;;;;1.00;1.00;;;;;;;;5037746;28;45676;-84
2021/08/20 12:41:30;;;;;;;;;2.50;2.00;;;;;;;;5025805;28;46934;-87
2021/08/20 12:43:56;;;;;;;;;2.00;2.00;;;;;;;;5022168;28;45828;-84
2021/08/20 12:46:32;;;;;;;;;1.00;1.00;;;;;;;;5023197;28;45742;-86
2021/08/20 12:48:59;;;;;;;;;3.00;1.25;;;;;;;;5027388;28;45620;-86
2021/08/20 12:51:24;;;;;;;;;1.50;1.00;;;;;;;;5043250;28;45542;-84
2021/08/20 12:54:12;;;;;;;;;3.50;1.50;;;;;;;;5042673;28;45594;-84
2021/08/20 12:56:37;;;;;;;;;1.00;1.00;;;;;;;;5017927;28;45514;-85
2021/08/20 12:59:05;;;;;;;;;1.25;1.25;;;;;;;;5045866;28;45568;-85
2021/08/20 13:01:30;;;;;;;;;0.75;0.75;;;;;;;;5022147;28;47387;-85
2021/08/20 13:03:55;;;;;;;;;2.00;1.25;;;;;;;;5028006;28;45529;-85
2021/08/20 13:06:21;;;;;;;;;3.00;1.75;;;;;;;;5021602;28;45535;-85
2021/08/20 13:08:46;;;;;;;;;2.50;1.00;;;;;;;;5032013;28;45733;-86
2021/08/20 13:11:11;;;;;;;;;3.00;3.00;;;;;;;;5045650;28;45592;-84
2021/08/20 13:13:37;;;;;;;;;2.25;2.25;;;;;;;;5042112;28;45483;-84
2021/08/20 13:16:02;;;;;;;;;2.00;2.00;;;;;;;;5025551;28;46141;-86
2021/08/20 13:18:27;;;;;;;;;1.00;1.00;;;;;;;;5026625;28;45597;-85
2021/08/20 13:20:54;;;;;;;;;2.25;2.00;;;;;;;;5042899;28;46106;-86
2021/08/20 13:23:19;;;;;;;;;2.50;1.25;;;;;;;;5050240;28;45925;-86
2021/08/20 13:25:45;;;;;;;;;2.00;2.00;;;;;;;;5044664;28;45620;-84
2021/08/20 13:28:11;;;;;;;;;2.25;2.00;;;;;;;;5045315;28;45578;-85
2021/08/20 13:30:37;;;;;;;;;1.75;1.75;;;;;;;;5049657;28;45626;-86
2021/08/20 13:33:03;;;;;;;;;1.25;1.00;;;;;;;;5041849;28;45536;-85
2021/08/20 13:35:28;;;;;;;;;1.50;1.50;;;;;;;;5046637;28;46312;-86
2021/08/20 13:37:53;;;;;;;;;2.00;2.00;;;;;;;;5049046;28;51288;-84
2021/08/20 13:40:19;;;;;;;;;1.50;0.50;;;;;;;;5025392;28;46945;-84
2021/08/20 13:42:44;;;;;;;;;2.50;1.00;;;;;;;;5030473;28;45549;-85
2021/08/20 13:45:10;;;;;;;;;3.75;3.25;;;;;;;;5017482;28;46065;-84
2021/08/20 13:47:36;;;;;;;;;4.00;2.00;;;;;;;;5027510;28;45542;-86
2021/08/20 13:50:03;;;;;;;;;4.25;2.50;;;;;;;;5045962;28;46417;-84
2021/08/20 13:52:29;;;;;;;;;2.25;1.75;;;;;;;;5044122;28;45538;-85
2021/08/20 13:54:54;;;;;;;;;2.00;2.00;;;;;;;;5018655;28;45571;-83
2021/08/20 13:57:19;;;;;;;;;2.25;2.00;;;;;;;;5026476;28;45921;-83
2021/08/20 13:59:45;;;;;;;;;3.00;2.50;;;;;;;;5043668;28;46637;-85
2021/08/20 14:02:10;;;;;;;;;2.00;1.25;;;;;;;;5048412;28;45620;-83
2021/08/20 14:04:35;;;;;;;;;2.00;2.00;;;;;;;;5027946;28;46837;-81
2021/08/20 14:07:00;;;;;;;;;2.00;2.00;;;;;;;;5027818;28;45737;-82
2021/08/20 14:09:26;;;;;;;;;1.75;1.75;;;;;;;;5048057;28;46339;-82
2021/08/20 14:11:51;;;;;;;;;2.00;1.00;;;;;;;;5044637;28;45651;-81
2021/08/20 14:14:17;;;;;;;;;0.75;0.75;;;;;;;;5017683;28;45499;-81
2021/08/20 14:16:42;;;;;;;;;1.00;1.00;;;;;;;;5045091;28;45678;-82
2021/08/20 14:19:07;;;;;;;;;1.50;1.00;;;;;;;;5045990;28;45765;-81
2021/08/20 14:21:34;;;;;;;;;3.00;3.00;;;;;;;;5019130;28;45635;-81
2021/08/20 14:23:59;;;;;;;;;2.25;2.25;;;;;;;;5027251;28;45530;-82
2021/08/20 14:26:24;;;;;;;;;1.50;1.50;;;;;;;;5028381;28;45965;-80
2021/08/20 14:28:50;;;;;;;;;2.00;2.00;;;;;;;;5044142;28;46255;-81
2021/08/20 14:31:15;;;;;;;;;4.00;2.75;;;;;;;;5027054;28;45919;-80
2021/08/20 14:33:40;;;;;;;;;4.00;4.00;;;;;;;;5048701;28;45548;-81
2021/08/20 14:36:05;;;;;;;;;2.00;2.00;;;;;;;;5044114;28;45478;-81
2021/08/20 14:38:31;;;;;;;;;0.75;0.75;;;;;;;;5047086;28;46094;-81
2021/08/20 14:40:56;;;;;;;;;1.00;1.00;;;;;;;;5046040;28;45552;-81
2021/08/20 14:43:21;;;;;;;;;1.25;1.25;;;;;;;;5040960;28;45486;-81
2021/08/20 14:45:46;;;;;;;;;2.50;2.50;;;;;;;;5049387;28;46178;-81